sensor_id;sensor_type;location;lat;lon;timestamp;pressure;altitude;pressure_sealevel;temperature;humidity
62725;BME280;49026;52.600;4.694;2023-04-08T00:01:15;102349.47;;;5.82;81.64
62725;BME280;49026;52.600;4.694;2023-04-08T00:03:40;102352.91;;;5.78;82.00
62725;BME280;49026;52.600;4.694;2023-04-08T00:06:05;102351.16;;;5.72;81.76
62725;BME280;49026;52.600;4.694;2023-04-08T00:08:31;102358.09;;;5.67;81.77
62725;BME280;49026;52.600;4.694;2023-04-08T00:10:56;102360.69;;;5.65;81.77
62725;BME280;49026;52.600;4.694;2023-04-08T00:13:21;102359.78;;;5.59;81.44
62725;BME280;49026;52.600;4.694;2023-04-08T00:15:47;102351.94;;;5.54;81.90
62725;BME280;49026;52.600;4.694;2023-04-08T00:18:13;102358.03;;;5.51;81.94
62725;BME280;49026;52.600;4.694;2023-04-08T00:20:41;102357.13;;;5.51;81.66
62725;BME280;49026;52.600;4.694;2023-04-08T00:23:06;102353.63;;;5.47;81.68
62725;BME280;49026;52.600;4.694;2023-04-08T00:25:32;102357.09;;;5.46;81.59
62725;BME280;49026;52.600;4.694;2023-04-08T00:27:57;102351.91;;;5.45;81.88
62725;BME280;49026;52.600;4.694;2023-04-08T00:30:22;102344.06;;;5.42;81.48
62725;BME280;49026;52.600;4.694;2023-04-08T00:32:47;102346.63;;;5.37;81.51
62725;BME280;49026;52.600;4.694;2023-04-08T00:35:17;102348.34;;;5.33;81.83
62725;BME280;49026;52.600;4.694;2023-04-08T00:37:42;102357.91;;;5.31;81.83
62725;BME280;49026;52.600;4.694;2023-04-08T00:40:08;102354.38;;;5.28;81.79
62725;BME280;49026;52.600;4.694;2023-04-08T00:42:33;102344.81;;;5.24;81.84
62725;BME280;49026;52.600;4.694;2023-04-08T00:44:59;102347.38;;;5.17;81.66
62725;BME280;49026;52.600;4.694;2023-04-08T00:47:24;102362.13;;;5.14;81.91
62725;BME280;49026;52.600;4.694;2023-04-08T00:49:53;102352.53;;;5.08;81.37
62725;BME280;49026;52.600;4.694;2023-04-08T00:52:18;102359.44;;;5.00;81.97
62725;BME280;49026;52.600;4.694;2023-04-08T00:54:44;102355.03;;;4.94;82.21
62725;BME280;49026;52.600;4.694;2023-04-08T00:57:12;102362.84;;;4.90;81.79
62725;BME280;49026;52.600;4.694;2023-04-08T00:59:37;102366.25;;;4.86;82.07
62725;BME280;49026;52.600;4.694;2023-04-08T01:02:21;102362.78;;;4.83;82.15
62725;BME280;49026;52.600;4.694;2023-04-08T01:05:06;102363.63;;;4.82;82.13
62725;BME280;49026;52.600;4.694;2023-04-08T01:07:36;102368.81;;;4.82;82.02
62725;BME280;49026;52.600;4.694;2023-04-08T01:10:06;102367.94;;;4.80;82.52
62725;BME280;49026;52.600;4.694;2023-04-08T01:12:41;102364.47;;;4.80;82.26
62725;BME280;49026;52.600;4.694;2023-04-08T01:15:10;102365.31;;;4.77;82.29
62725;BME280;49026;52.600;4.694;2023-04-08T01:17:37;102373.09;;;4.74;82.33
62725;BME280;49026;52.600;4.694;2023-04-08T01:20:08;102371.38;;;4.73;82.11
62725;BME280;49026;52.600;4.694;2023-04-08T01:23:13;102362.66;;;4.70;82.62
62725;BME280;49026;52.600;4.694;2023-04-08T01:25:53;102370.44;;;4.67;82.57
62725;BME280;49026;52.600;4.694;2023-04-08T01:28:21;102366.94;;;4.63;82.42
62725;BME280;49026;52.600;4.694;2023-04-08T01:30:48;102373.88;;;4.59;82.42
62725;BME280;49026;52.600;4.694;2023-04-08T01:33:17;102369.47;;;4.55;82.39
62725;BME280;49026;52.600;4.694;2023-04-08T01:35:44;102376.38;;;4.52;82.34
62725;BME280;49026;52.600;4.694;2023-04-08T01:38:15;102375.47;;;4.48;82.32
62725;BME280;49026;52.600;4.694;2023-04-08T01:40:45;102368.47;;;4.44;82.46
62725;BME280;49026;52.600;4.694;2023-04-08T01:43:13;102371.06;;;4.39;82.25
62725;BME280;49026;52.600;4.694;2023-04-08T01:45:39;102376.22;;;4.35;82.45
62725;BME280;49026;52.600;4.694;2023-04-08T01:48:04;102376.16;;;4.30;82.28
62725;BME280;49026;52.600;4.694;2023-04-08T01:50:31;102377.00;;;4.26;82.17
62725;BME280;49026;52.600;4.694;2023-04-08T01:52:59;102382.09;;;4.18;81.77
62725;BME280;49026;52.600;4.694;2023-04-08T01:55:27;102379.44;;;4.12;82.25
62725;BME280;49026;52.600;4.694;2023-04-08T01:57:54;102386.28;;;4.05;82.27
62725;BME280;49026;52.600;4.694;2023-04-08T02:00:25;102384.47;;;3.98;82.24
62725;BME280;49026;52.600;4.694;2023-04-08T02:02:52;102382.66;;;3.89;81.56
62725;BME280;49026;52.600;4.694;2023-04-08T02:05:22;102376.50;;;3.83;81.78
62725;BME280;49026;52.600;4.694;2023-04-08T02:07:47;102379.88;;;3.77;81.73
62725;BME280;49026;52.600;4.694;2023-04-08T02:10:13;102382.41;;;3.71;82.05
62725;BME280;49026;52.600;4.694;2023-04-08T02:12:42;102379.72;;;3.65;81.60
62725;BME280;49026;52.600;4.694;2023-04-08T02:15:08;102386.56;;;3.58;82.08
62725;BME280;49026;52.600;4.694;2023-04-08T02:17:55;102383.88;;;3.52;81.39
62725;BME280;49026;52.600;4.694;2023-04-08T02:20:36;102394.22;;;3.46;81.72
62725;BME280;49026;52.600;4.694;2023-04-08T02:25:55;102397.47;;;3.34;81.50
62725;BME280;49026;52.600;4.694;2023-04-08T02:28:21;102392.22;;;3.29;81.01
62725;BME280;49026;52.600;4.694;2023-04-08T02:30:51;102393.91;;;3.24;81.29
62725;BME280;49026;52.600;4.694;2023-04-08T02:33:18;102393.78;;;3.18;80.91
62725;BME280;49026;52.600;4.694;2023-04-08T02:35:46;102404.13;;;3.15;81.71
62725;BME280;49026;52.600;4.694;2023-04-08T02:38:12;102405.84;;;3.13;80.96
62725;BME280;49026;52.600;4.694;2023-04-08T02:40:37;102399.78;;;3.12;81.48
62725;BME280;49026;52.600;4.694;2023-04-08T02:43:02;102402.38;;;3.12;81.38
62725;BME280;49026;52.600;4.694;2023-04-08T02:45:34;102403.19;;;3.10;81.37
62725;BME280;49026;52.600;4.694;2023-04-08T02:48:02;102409.22;;;3.09;81.15
62725;BME280;49026;52.600;4.694;2023-04-08T02:50:29;102404.91;;;3.09;80.98
62725;BME280;49026;52.600;4.694;2023-04-08T02:52:55;102404.91;;;3.09;80.87
62725;BME280;49026;52.600;4.694;2023-04-08T02:55:21;102412.72;;;3.09;80.76
62725;BME280;49026;52.600;4.694;2023-04-08T02:57:47;102415.28;;;3.08;80.84
62725;BME280;49026;52.600;4.694;2023-04-08T03:00:13;102415.25;;;3.06;81.12
62725;BME280;49026;52.600;4.694;2023-04-08T03:02:41;102409.19;;;3.06;81.30
62725;BME280;49026;52.600;4.694;2023-04-08T03:05:06;102416.06;;;3.04;80.86
62725;BME280;49026;52.600;4.694;2023-04-08T03:07:35;102422.97;;;3.02;81.08
62725;BME280;49026;52.600;4.694;2023-04-08T03:10:03;102417.72;;;2.99;81.41
62725;BME280;49026;52.600;4.694;2023-04-08T03:12:28;102424.56;;;2.93;81.02
62725;BME280;49026;52.600;4.694;2023-04-08T03:14:54;102425.41;;;2.94;81.30
62725;BME280;49026;52.600;4.694;2023-04-08T03:17:22;102425.41;;;2.92;80.65
62725;BME280;49026;52.600;4.694;2023-04-08T03:19:47;102425.34;;;2.88;81.11
62725;BME280;49026;52.600;4.694;2023-04-08T03:22:12;102429.56;;;2.83;80.84
62725;BME280;49026;52.600;4.694;2023-04-08T03:24:40;102431.22;;;2.77;81.01
62725;BME280;49026;52.600;4.694;2023-04-08T03:27:06;102434.69;;;2.78;80.92
62725;BME280;49026;52.600;4.694;2023-04-08T03:29:36;102433.78;;;2.76;81.04
62725;BME280;49026;52.600;4.694;2023-04-08T03:32:02;102431.16;;;2.74;80.68
62725;BME280;49026;52.600;4.694;2023-04-08T03:34:29;102435.47;;;2.72;80.95
62725;BME280;49026;52.600;4.694;2023-04-08T03:36:55;102431.97;;;2.72;80.69
62725;BME280;49026;52.600;4.694;2023-04-08T03:39:23;102438.06;;;2.72;81.35
62725;BME280;49026;52.600;4.694;2023-04-08T03:41:49;102441.50;;;2.73;81.00
62725;BME280;49026;52.600;4.694;2023-04-08T03:44:14;102446.66;;;2.70;80.67
62725;BME280;49026;52.600;4.694;2023-04-08T03:46:39;102442.25;;;2.66;80.99
62725;BME280;49026;52.600;4.694;2023-04-08T03:49:04;102447.38;;;2.63;80.80
62725;BME280;49026;52.600;4.694;2023-04-08T03:51:30;102448.16;;;2.58;81.37
62725;BME280;49026;52.600;4.694;2023-04-08T03:53:55;102446.34;;;2.53;80.86
62725;BME280;49026;52.600;4.694;2023-04-08T03:56:20;102448.84;;;2.48;81.27
62725;BME280;49026;52.600;4.694;2023-04-08T03:58:46;102443.66;;;2.48;81.29
62725;BME280;49026;52.600;4.694;2023-04-08T04:01:17;102452.25;;;2.47;81.11
62725;BME280;49026;52.600;4.694;2023-04-08T04:03:42;102446.19;;;2.45;81.05
62725;BME280;49026;52.600;4.694;2023-04-08T04:06:07;102444.47;;;2.46;80.69
62725;BME280;49026;52.600;4.694;2023-04-08T04:08:35;102449.63;;;2.44;80.77
62725;BME280;49026;52.600;4.694;2023-04-08T04:11:00;102456.50;;;2.42;80.90
62725;BME280;49026;52.600;4.694;2023-04-08T04:13:26;102458.13;;;2.37;80.82
62725;BME280;49026;52.600;4.694;2023-04-08T04:15:51;102461.50;;;2.33;81.23
62725;BME280;49026;52.600;4.694;2023-04-08T04:18:16;102459.75;;;2.32;81.04
62725;BME280;49026;52.600;4.694;2023-04-08T04:20:44;102464.00;;;2.28;80.36
62725;BME280;49026;52.600;4.694;2023-04-08T04:23:09;102461.34;;;2.25;80.65
62725;BME280;49026;52.600;4.694;2023-04-08T04:25:35;102462.09;;;2.19;80.05
62725;BME280;49026;52.600;4.694;2023-04-08T04:28:00;102469.75;;;2.13;80.47
62725;BME280;49026;52.600;4.694;2023-04-08T04:30:26;102465.38;;;2.09;80.41
62725;BME280;49026;52.600;4.694;2023-04-08T04:32:52;102467.84;;;2.04;80.96
62725;BME280;49026;52.600;4.694;2023-04-08T04:35:17;102469.50;;;2.01;80.56
62725;BME280;49026;52.600;4.694;2023-04-08T04:37:42;102472.00;;;1.96;80.80
62725;BME280;49026;52.600;4.694;2023-04-08T04:40:11;102475.41;;;1.95;80.12
62725;BME280;49026;52.600;4.694;2023-04-08T04:42:36;102479.66;;;1.92;80.47
62725;BME280;49026;52.600;4.694;2023-04-08T04:45:02;102484.81;;;1.90;80.82
62725;BME280;49026;52.600;4.694;2023-04-08T04:47:28;102485.63;;;1.88;80.90
62725;BME280;49026;52.600;4.694;2023-04-08T04:49:53;102483.78;;;1.83;80.15
62725;BME280;49026;52.600;4.694;2023-04-08T04:52:18;102488.09;;;1.81;80.58
62725;BME280;49026;52.600;4.694;2023-04-08T04:54:44;102489.84;;;1.82;80.16
62725;BME280;49026;52.600;4.694;2023-04-08T04:57:09;102485.53;;;1.83;80.12
62725;BME280;49026;52.600;4.694;2023-04-08T04:59:35;102488.19;;;1.86;80.82
62725;BME280;49026;52.600;4.694;2023-04-08T05:02:01;102490.00;;;1.90;80.65
62725;BME280;49026;52.600;4.694;2023-04-08T05:04:28;102483.13;;;1.91;80.53
62725;BME280;49026;52.600;4.694;2023-04-08T05:06:53;102490.94;;;1.92;80.05
62725;BME280;49026;52.600;4.694;2023-04-08T05:09:19;102490.94;;;1.94;79.79
62725;BME280;49026;52.600;4.694;2023-04-08T05:11:44;102490.09;;;1.95;79.96
62725;BME280;49026;52.600;4.694;2023-04-08T05:14:10;102491.94;;;1.99;80.12
62725;BME280;49026;52.600;4.694;2023-04-08T05:16:38;102492.94;;;2.06;80.54
62725;BME280;49026;52.600;4.694;2023-04-08T05:19:03;102498.19;;;2.09;79.87
62725;BME280;49026;52.600;4.694;2023-04-08T05:21:29;102500.88;;;2.13;80.31
62725;BME280;49026;52.600;4.694;2023-04-08T05:23:54;102502.72;;;2.17;80.58
62725;BME280;49026;52.600;4.694;2023-04-08T05:26:19;102503.69;;;2.22;80.55
62725;BME280;49026;52.600;4.694;2023-04-08T05:28:53;102506.41;;;2.30;80.37
62725;BME280;49026;52.600;4.694;2023-04-08T05:31:19;102509.16;;;2.36;81.15
62725;BME280;49026;52.600;4.694;2023-04-08T05:33:47;102515.34;;;2.43;80.25
62725;BME280;49026;52.600;4.694;2023-04-08T05:36:13;102509.41;;;2.50;80.80
62725;BME280;49026;52.600;4.694;2023-04-08T05:38:41;102519.09;;;2.57;81.12
62725;BME280;49026;52.600;4.694;2023-04-08T05:41:09;102523.56;;;2.65;80.76
62725;BME280;49026;52.600;4.694;2023-04-08T05:43:35;102526.31;;;2.72;80.98
62725;BME280;49026;52.600;4.694;2023-04-08T05:46:08;102524.72;;;2.79;80.65
62725;BME280;49026;52.600;4.694;2023-04-08T05:48:34;102529.13;;;2.85;81.35
62725;BME280;49026;52.600;4.694;2023-04-08T05:51:00;102532.75;;;2.93;80.80
62725;BME280;49026;52.600;4.694;2023-04-08T05:53:25;102533.78;;;3.01;81.10
62725;BME280;49026;52.600;4.694;2023-04-08T05:55:53;102546.03;;;3.10;81.49
62725;BME280;49026;52.600;4.694;2023-04-08T05:58:18;102549.72;;;3.21;81.75
62725;BME280;49026;52.600;4.694;2023-04-08T06:00:44;102547.53;;;3.44;81.98
62725;BME280;49026;52.600;4.694;2023-04-08T06:03:09;102540.06;;;3.67;81.42
62725;BME280;49026;52.600;4.694;2023-04-08T06:05:37;102545.53;;;3.83;82.01
62725;BME280;49026;52.600;4.694;2023-04-08T06:08:04;102550.00;;;3.92;81.41
62725;BME280;49026;52.600;4.694;2023-04-08T06:10:30;102550.06;;;3.96;81.52
62725;BME280;49026;52.600;4.694;2023-04-08T06:12:58;102543.19;;;4.01;82.16
62725;BME280;49026;52.600;4.694;2023-04-08T06:15:24;102552.81;;;4.08;82.01
62725;BME280;49026;52.600;4.694;2023-04-08T06:17:50;102556.41;;;4.17;82.98
62725;BME280;49026;52.600;4.694;2023-04-08T06:20:15;102559.16;;;4.26;82.52
62725;BME280;49026;52.600;4.694;2023-04-08T06:22:40;102564.50;;;4.37;82.87
62725;BME280;49026;52.600;4.694;2023-04-08T06:25:06;102568.94;;;4.45;83.18
62725;BME280;49026;52.600;4.694;2023-04-08T06:27:31;102578.59;;;4.56;83.09
62725;BME280;49026;52.600;4.694;2023-04-08T06:29:56;102576.13;;;4.65;83.25
62725;BME280;49026;52.600;4.694;2023-04-08T06:32:22;102584.09;;;4.77;83.72
62725;BME280;49026;52.600;4.694;2023-04-08T06:34:49;102584.28;;;4.91;83.47
62725;BME280;49026;52.600;4.694;2023-04-08T06:37:15;102583.56;;;5.06;83.77
62725;BME280;49026;52.600;4.694;2023-04-08T06:39:40;102587.22;;;5.24;83.80
62725;BME280;49026;52.600;4.694;2023-04-08T06:42:06;102596.03;;;5.39;83.80
62725;BME280;49026;52.600;4.694;2023-04-08T06:44:33;102598.78;;;5.52;84.07
62725;BME280;49026;52.600;4.694;2023-04-08T06:46:59;102596.28;;;5.66;84.59
62725;BME280;49026;52.600;4.694;2023-04-08T06:49:24;102593.78;;;5.78;84.65
62725;BME280;49026;52.600;4.694;2023-04-08T06:51:51;102599.91;;;5.86;84.95
62725;BME280;49026;52.600;4.694;2023-04-08T06:54:16;102599.19;;;5.97;85.17
62725;BME280;49026;52.600;4.694;2023-04-08T06:56:44;102602.72;;;6.09;85.67
62725;BME280;49026;52.600;4.694;2023-04-08T06:59:11;102607.16;;;6.21;85.45
62725;BME280;49026;52.600;4.694;2023-04-08T07:01:37;102609.84;;;6.30;86.40
62725;BME280;49026;52.600;4.694;2023-04-08T07:04:02;102612.47;;;6.40;86.10
62725;BME280;49026;52.600;4.694;2023-04-08T07:06:27;102617.78;;;6.49;86.39
62725;BME280;49026;52.600;4.694;2023-04-08T07:08:53;102607.38;;;6.55;86.84
62725;BME280;49026;52.600;4.694;2023-04-08T07:11:18;102612.63;;;6.67;86.81
62725;BME280;49026;52.600;4.694;2023-04-08T07:13:43;102613.56;;;6.77;86.63
62725;BME280;49026;52.600;4.694;2023-04-08T07:16:11;102618.81;;;6.93;87.42
62725;BME280;49026;52.600;4.694;2023-04-08T07:18:36;102622.38;;;7.10;87.64
62725;BME280;49026;52.600;4.694;2023-04-08T07:21:02;102621.53;;;7.16;87.27
62725;BME280;49026;52.600;4.694;2023-04-08T07:23:27;102626.78;;;7.22;87.36
62725;BME280;49026;52.600;4.694;2023-04-08T07:25:52;102627.66;;;7.27;87.54
62725;BME280;49026;52.600;4.694;2023-04-08T07:28:18;102632.03;;;7.37;88.38
62725;BME280;49026;52.600;4.694;2023-04-08T07:30:44;102643.41;;;7.50;87.14
62725;BME280;49026;52.600;4.694;2023-04-08T07:33:09;102639.06;;;7.74;88.60
62725;BME280;49026;52.600;4.694;2023-04-08T07:35:35;102646.88;;;8.00;89.47
62725;BME280;49026;52.600;4.694;2023-04-08T07:38:03;102639.00;;;8.20;89.18
62725;BME280;49026;52.600;4.694;2023-04-08T07:40:29;102650.34;;;8.38;89.56
62725;BME280;49026;52.600;4.694;2023-04-08T07:42:55;102644.22;;;8.57;90.48
62725;BME280;49026;52.600;4.694;2023-04-08T07:45:20;102644.19;;;8.71;89.43
62725;BME280;49026;52.600;4.694;2023-04-08T07:47:45;102646.78;;;8.74;88.95
62725;BME280;49026;52.600;4.694;2023-04-08T07:50:13;102645.94;;;8.67;89.07
62725;BME280;49026;52.600;4.694;2023-04-08T07:52:38;102643.31;;;8.66;89.60
62725;BME280;49026;52.600;4.694;2023-04-08T07:55:04;102647.66;;;8.76;89.92
62725;BME280;49026;52.600;4.694;2023-04-08T07:57:30;102647.59;;;8.90;88.79
62725;BME280;49026;52.600;4.694;2023-04-08T07:59:55;102653.66;;;9.04;87.61
62725;BME280;49026;52.600;4.694;2023-04-08T08:02:23;102661.50;;;9.12;89.38
62725;BME280;49026;52.600;4.694;2023-04-08T08:04:49;102664.06;;;9.23;89.90
62725;BME280;49026;52.600;4.694;2023-04-08T08:07:14;102660.56;;;9.24;89.43
62725;BME280;49026;52.600;4.694;2023-04-08T08:09:39;102665.81;;;9.25;89.58
62725;BME280;49026;52.600;4.694;2023-04-08T08:12:05;102668.44;;;9.22;89.86
62725;BME280;49026;52.600;4.694;2023-04-08T08:14:32;102674.53;;;9.26;90.38
62725;BME280;49026;52.600;4.694;2023-04-08T08:16:58;102672.72;;;9.39;91.25
62725;BME280;49026;52.600;4.694;2023-04-08T08:19:26;102668.25;;;9.52;90.56
62725;BME280;49026;52.600;4.694;2023-04-08T08:21:53;102669.94;;;9.60;89.50
62725;BME280;49026;52.600;4.694;2023-04-08T08:24:20;102664.66;;;9.67;89.41
62725;BME280;49026;52.600;4.694;2023-04-08T08:26:47;102673.34;;;9.75;88.38
62725;BME280;49026;52.600;4.694;2023-04-08T08:29:13;102667.09;;;9.90;89.25
62725;BME280;49026;52.600;4.694;2023-04-08T08:31:45;102669.50;;;10.16;89.07
62725;BME280;49026;52.600;4.694;2023-04-08T08:34:12;102666.69;;;10.39;90.04
62725;BME280;49026;52.600;4.694;2023-04-08T08:36:37;102672.47;;;10.70;87.44
62725;BME280;49026;52.600;4.694;2023-04-08T08:39:05;102677.44;;;10.95;87.91
62725;BME280;49026;52.600;4.694;2023-04-08T08:41:34;102677.22;;;11.13;89.45
62725;BME280;49026;52.600;4.694;2023-04-08T08:44:04;102684.03;;;11.28;86.76
62725;BME280;49026;52.600;4.694;2023-04-08T08:46:30;102694.50;;;11.33;87.77
62725;BME280;49026;52.600;4.694;2023-04-08T08:48:56;102692.75;;;11.32;85.71
62725;BME280;49026;52.600;4.694;2023-04-08T08:51:21;102690.06;;;11.37;88.10
62725;BME280;49026;52.600;4.694;2023-04-08T08:53:47;102690.84;;;11.43;88.36
62725;BME280;49026;52.600;4.694;2023-04-08T08:56:14;102687.34;;;11.44;87.85
62725;BME280;49026;52.600;4.694;2023-04-08T08:58:42;102682.00;;;11.47;80.66
62725;BME280;49026;52.600;4.694;2023-04-08T09:04:10;102687.91;;;11.65;79.49
62725;BME280;49026;52.600;4.694;2023-04-08T09:06:36;102690.41;;;11.73;72.37
62725;BME280;49026;52.600;4.694;2023-04-08T09:09:04;102688.66;;;11.73;76.49
62725;BME280;49026;52.600;4.694;2023-04-08T09:11:35;102687.75;;;11.74;82.69
62725;BME280;49026;52.600;4.694;2023-04-08T09:14:23;102682.41;;;11.80;82.52
62725;BME280;49026;52.600;4.694;2023-04-08T09:16:51;102682.31;;;11.86;83.13
62725;BME280;49026;52.600;4.694;2023-04-08T09:19:17;102688.19;;;12.04;85.53
62725;BME280;49026;52.600;4.694;2023-04-08T09:21:43;102679.06;;;12.23;83.99
62725;BME280;49026;52.600;4.694;2023-04-08T09:24:15;102678.78;;;12.39;84.18
62725;BME280;49026;52.600;4.694;2023-04-08T09:26:51;102683.84;;;12.51;78.83
62725;BME280;49026;52.600;4.694;2023-04-08T09:29:16;102683.91;;;12.48;79.00
62725;BME280;49026;52.600;4.694;2023-04-08T09:31:41;102682.06;;;12.53;81.35
62725;BME280;49026;52.600;4.694;2023-04-08T09:34:14;102685.22;;;12.71;78.13
62725;BME280;49026;52.600;4.694;2023-04-08T09:36:41;102673.59;;;12.79;76.64
62725;BME280;49026;52.600;4.694;2023-04-08T09:39:06;102676.84;;;12.94;75.91
62725;BME280;49026;52.600;4.694;2023-04-08T09:41:33;102678.31;;;13.07;75.11
62725;BME280;49026;52.600;4.694;2023-04-08T09:44:04;102678.63;;;13.36;80.41
62725;BME280;49026;52.600;4.694;2023-04-08T09:46:32;102681.66;;;13.56;82.76
62725;BME280;49026;52.600;4.694;2023-04-08T09:51:53;102680.16;;;13.46;80.48
62725;BME280;49026;52.600;4.694;2023-04-08T09:54:30;102674.59;;;13.58;79.74
62725;BME280;49026;52.600;4.694;2023-04-08T09:57:05;102680.50;;;13.68;75.81
62725;BME280;49026;52.600;4.694;2023-04-08T09:59:35;102678.50;;;13.79;78.13
62725;BME280;49026;52.600;4.694;2023-04-08T10:02:08;102676.31;;;13.97;76.81
62725;BME280;49026;52.600;4.694;2023-04-08T10:04:40;102691.22;;;13.99;73.30
62725;BME280;49026;52.600;4.694;2023-04-08T10:07:10;102679.53;;;14.08;74.85
62725;BME280;49026;52.600;4.694;2023-04-08T10:09:35;102678.63;;;14.43;74.92
62725;BME280;49026;52.600;4.694;2023-04-08T10:12:03;102684.38;;;14.59;68.30
62725;BME280;49026;52.600;4.694;2023-04-08T10:14:28;102685.59;;;14.46;66.80
62725;BME280;49026;52.600;4.694;2023-04-08T10:17:25;102684.47;;;14.55;71.07
62725;BME280;49026;52.600;4.694;2023-04-08T10:20:00;102687.47;;;14.75;72.18
62725;BME280;49026;52.600;4.694;2023-04-08T10:27:41;102691.31;;;14.95;70.16
62725;BME280;49026;52.600;4.694;2023-04-08T10:30:40;102695.94;;;14.87;61.05
62725;BME280;49026;52.600;4.694;2023-04-08T10:33:31;102691.03;;;14.74;66.83
62725;BME280;49026;52.600;4.694;2023-04-08T10:36:12;102699.34;;;14.60;68.80
62725;BME280;49026;52.600;4.694;2023-04-08T10:38:40;102699.94;;;14.72;70.97
62725;BME280;49026;52.600;4.694;2023-04-08T10:41:09;102704.44;;;14.67;71.89
62725;BME280;49026;52.600;4.694;2023-04-08T10:43:35;102690.56;;;14.58;73.49
62725;BME280;49026;52.600;4.694;2023-04-08T10:46:03;102690.72;;;14.52;68.66
62725;BME280;49026;52.600;4.694;2023-04-08T10:48:29;102697.56;;;14.61;71.85
62725;BME280;49026;52.600;4.694;2023-04-08T10:51:10;102688.50;;;14.70;74.14
62725;BME280;49026;52.600;4.694;2023-04-08T10:53:37;102697.25;;;15.03;72.01
62725;BME280;49026;52.600;4.694;2023-04-08T10:58:30;102692.38;;;15.19;69.40
62725;BME280;49026;52.600;4.694;2023-04-08T11:01:06;102686.19;;;14.90;66.30
62725;BME280;49026;52.600;4.694;2023-04-08T11:03:33;102687.16;;;14.86;63.68
62725;BME280;49026;52.600;4.694;2023-04-08T11:05:59;102687.13;;;14.88;63.20
62725;BME280;49026;52.600;4.694;2023-04-08T11:08:32;102690.53;;;14.91;65.98
62725;BME280;49026;52.600;4.694;2023-04-08T11:10:58;102685.81;;;15.03;65.91
62725;BME280;49026;52.600;4.694;2023-04-08T11:13:28;102688.16;;;15.42;69.41
62725;BME280;49026;52.600;4.694;2023-04-08T11:15:57;102683.88;;;15.66;67.21
62725;BME280;49026;52.600;4.694;2023-04-08T11:18:25;102687.31;;;15.96;68.84
62725;BME280;49026;52.600;4.694;2023-04-08T11:20:53;102685.84;;;16.14;69.75
62725;BME280;49026;52.600;4.694;2023-04-08T11:23:19;102683.19;;;16.14;65.80
62725;BME280;49026;52.600;4.694;2023-04-08T11:25:45;102672.84;;;16.32;69.47
62725;BME280;49026;52.600;4.694;2023-04-08T11:28:12;102672.09;;;16.53;67.09
62725;BME280;49026;52.600;4.694;2023-04-08T11:30:39;102672.78;;;16.58;67.69
62725;BME280;49026;52.600;4.694;2023-04-08T11:33:05;102674.16;;;16.68;71.90
62725;BME280;49026;52.600;4.694;2023-04-08T11:35:33;102661.59;;;16.74;67.54
62725;BME280;49026;52.600;4.694;2023-04-08T11:37:59;102658.34;;;16.65;70.68
62725;BME280;49026;52.600;4.694;2023-04-08T11:40:24;102663.66;;;16.65;71.25
62725;BME280;49026;52.600;4.694;2023-04-08T11:42:51;102667.47;;;16.58;70.65
62725;BME280;49026;52.600;4.694;2023-04-08T11:45:19;102673.00;;;16.52;70.97
62725;BME280;49026;52.600;4.694;2023-04-08T11:47:45;102666.00;;;16.75;72.46
62725;BME280;49026;52.600;4.694;2023-04-08T11:50:11;102675.63;;;17.02;71.75
62725;BME280;49026;52.600;4.694;2023-04-08T11:52:47;102669.94;;;16.88;70.04
62725;BME280;49026;52.600;4.694;2023-04-08T11:55:32;102680.25;;;16.97;72.28
62725;BME280;49026;52.600;4.694;2023-04-08T11:58:02;102685.97;;;17.09;67.04
62725;BME280;49026;52.600;4.694;2023-04-08T12:00:28;102687.25;;;16.98;66.49
62725;BME280;49026;52.600;4.694;2023-04-08T12:02:53;102686.81;;;17.11;70.90
62725;BME280;49026;52.600;4.694;2023-04-08T12:05:19;102688.66;;;17.54;71.69
62725;BME280;49026;52.600;4.694;2023-04-08T12:07:45;102687.28;;;17.88;64.04
62725;BME280;49026;52.600;4.694;2023-04-08T12:10:11;102682.47;;;17.76;42.49
62725;BME280;49026;52.600;4.694;2023-04-08T12:12:37;102686.59;;;17.61;61.30
62725;BME280;49026;52.600;4.694;2023-04-08T12:15:04;102683.34;;;17.54;62.26
62725;BME280;49026;52.600;4.694;2023-04-08T12:17:29;102684.59;;;17.22;51.62
62725;BME280;49026;52.600;4.694;2023-04-08T12:19:55;102687.78;;;16.84;58.66
62725;BME280;49026;52.600;4.694;2023-04-08T12:22:23;102679.81;;;16.84;61.83
62725;BME280;49026;52.600;4.694;2023-04-08T12:24:48;102684.19;;;16.85;61.16
62725;BME280;49026;52.600;4.694;2023-04-08T12:27:18;102673.41;;;16.90;62.13
62725;BME280;49026;52.600;4.694;2023-04-08T12:29:46;102670.75;;;16.90;61.19
62725;BME280;49026;52.600;4.694;2023-04-08T12:32:13;102674.56;;;17.07;60.48
62725;BME280;49026;52.600;4.694;2023-04-08T12:34:39;102687.06;;;17.27;63.57
62725;BME280;49026;52.600;4.694;2023-04-08T12:37:04;102686.50;;;17.40;63.48
62725;BME280;49026;52.600;4.694;2023-04-08T12:39:32;102686.50;;;17.64;65.15
62725;BME280;49026;52.600;4.694;2023-04-08T12:41:57;102672.31;;;17.41;63.28
62725;BME280;49026;52.600;4.694;2023-04-08T12:44:23;102676.72;;;17.19;50.34
62725;BME280;49026;52.600;4.694;2023-04-08T12:46:51;102672.19;;;16.99;59.85
62725;BME280;49026;52.600;4.694;2023-04-08T12:49:16;102673.66;;;17.08;62.03
62725;BME280;49026;52.600;4.694;2023-04-08T12:51:41;102676.94;;;17.36;63.69
62725;BME280;49026;52.600;4.694;2023-04-08T12:54:07;102674.34;;;17.57;60.74
62725;BME280;49026;52.600;4.694;2023-04-08T12:56:32;102671.94;;;17.73;60.31
62725;BME280;49026;52.600;4.694;2023-04-08T12:58:58;102679.44;;;17.63;61.29
62725;BME280;49026;52.600;4.694;2023-04-08T13:01:25;102679.84;;;17.74;64.78
62725;BME280;49026;52.600;4.694;2023-04-08T13:03:50;102682.25;;;17.81;65.22
62725;BME280;49026;52.600;4.694;2023-04-08T13:06:16;102680.34;;;17.84;67.04
62725;BME280;49026;52.600;4.694;2023-04-08T13:08:43;102680.47;;;18.03;65.09
62725;BME280;49026;52.600;4.694;2023-04-08T13:11:09;102681.25;;;18.05;65.23
62725;BME280;49026;52.600;4.694;2023-04-08T13:13:36;102689.09;;;17.88;63.35
62725;BME280;49026;52.600;4.694;2023-04-08T13:16:01;102684.59;;;18.10;66.46